Annette Island, AK

11:52 PM AKDT on July 04, 2015 (GMT -0800)
Annette Island | | Change Station
CLOSE
Current Station
Airport
Location: Annette Island,
Elevation: 112 ft
Nearby Weather Stations

Elev 112 ft 55.04 °N, 131.57 °W | Updated 59 minutes ago

Clear
Clear
65 °F
Feels Like 65 °F
N
7
Wind Variable Wind from NNW

Today
High -- | Low -- °F
--% Chance of Precip.
Yesterday
High -- | Low -- °F
Precip. -- in
4:14 AM 9:26 PM
Waning Gibbous, 87% visible
Pressure 30.12 in
Visibility 10.0 miles
Clouds Clear
Dew Point 52 °F
Humidity 63%
Rainfall 0.00 in
Snow Depth Not available.
UV 0 out of 12
Pollen Not available.
Air Quality Not available.
Flu Activity Not available.
METAR PANT 050653Z AUTO 33006KT 10SM CLR 18/11 A3012 RMK SLP200 T01830111 TSNO VIA AUTODIAL

More Conditions Fewer Conditions

Pressure 30.12 in
Visibility 10.0 miles
Clouds Clear
Dew Point 52 °F
Humidity 63%
Rainfall 0.00 in
Snow Depth Not available.
UV 0 out of 12
Pollen Not available.
Air Quality Not available.
Flu Activity Not available.
METAR PANT 050653Z AUTO 33006KT 10SM CLR 18/11 A3012 RMK SLP200 T01830111 TSNO VIA AUTODIAL

More Conditions Fewer Conditions

10-Day Weather Forecast

×

Almanac

Astronomy

Jul. 04, 2015 Rise Set
Actual Time
Civil Twilight
Nautical Twilight
Astronomical Twilight
Moon
Length of Visible Light
Length of Day
Tomorrow will be .
, % of the Moon is Illuminated

Today's Extremes

State Highs State Lows

Community

WunderPhotos

Upload Photos

1,835,215 photos uploaded!

WunderBlogs® & News

Nearby

Air Quality

  Air Quality AQ Index Pollutant
Not available.

Snow Depth

Station Depth Elevation

Earthquake Activity

City Distance Mag. Time & Date
Minimum magnitude displayed is 2.5.

Coastal Water Temperatures

Place Temperature

Stations

Nearby Weather Stations

Station Location Temp. Windchill Dew Point Humidity Wind Precip. Elev Updated Type